sensor_id;sensor_type;location;lat;lon;timestamp;P1;durP1;ratioP1;P2;durP2;ratioP2
26824;SDS011;14402;48.178;11.566;2023-01-16T00:17:19;1.5;;;0.6;;
26824;SDS011;14402;48.178;11.566;2023-01-16T00:17:48;1.5;;;0.6;;
26824;SDS011;14402;48.178;11.566;2023-01-16T00:18:18;1.5;;;0.6;;
26824;SDS011;14402;48.178;11.566;2023-01-16T00:18:48;1.5;;;0.6;;
26824;SDS011;14402;48.178;11.566;2023-01-16T00:19:18;1.5;;;0.6;;
26824;SDS011;14402;48.178;11.566;2023-01-16T00:19:48;1.5;;;0.6;;
26824;SDS011;14402;48.178;11.566;2023-01-16T00:20:18;1.5;;;0.6;;
26824;SDS011;14402;48.178;11.566;2023-01-16T00:20:48;1.5;;;0.6;;
26824;SDS011;14402;48.178;11.566;2023-01-16T00:21:19;1.6;;;0.7;;
26824;SDS011;14402;48.178;11.566;2023-01-16T00:21:49;1.6;;;0.7;;
26824;SDS011;14402;48.178;11.566;2023-01-16T00:22:19;1.6;;;0.7;;
26824;SDS011;14402;48.178;11.566;2023-01-16T00:22:49;1.5;;;0.7;;
26824;SDS011;14402;48.178;11.566;2023-01-16T00:23:19;1.4;;;0.7;;
26824;SDS011;14402;48.178;11.566;2023-01-16T00:23:49;1.4;;;0.7;;
26824;SDS011;14402;48.178;11.566;2023-01-16T00:24:19;1.4;;;0.7;;
26824;SDS011;14402;48.178;11.566;2023-01-16T00:24:49;1.5;;;0.8;;
26824;SDS011;14402;48.178;11.566;2023-01-16T00:25:19;1.5;;;0.8;;
26824;SDS011;14402;48.178;11.566;2023-01-16T00:25:49;1.5;;;0.8;;
26824;SDS011;14402;48.178;11.566;2023-01-16T00:26:20;1.5;;;0.8;;
26824;SDS011;14402;48.178;11.566;2023-01-16T00:26:50;1.5;;;0.8;;
26824;SDS011;14402;48.178;11.566;2023-01-16T00:27:20;1.6;;;0.8;;
26824;SDS011;14402;48.178;11.566;2023-01-16T00:27:50;1.6;;;0.8;;
26824;SDS011;14402;48.178;11.566;2023-01-16T00:28:20;1.6;;;0.8;;
26824;SDS011;14402;48.178;11.566;2023-01-16T00:28:50;1.3;;;0.7;;
26824;SDS011;14402;48.178;11.566;2023-01-16T00:29:20;1.0;;;0.6;;
26824;SDS011;14402;48.178;11.566;2023-01-16T00:29:50;1.0;;;0.6;;
26824;SDS011;14402;48.178;11.566;2023-01-16T00:30:20;1.0;;;0.6;;
26824;SDS011;14402;48.178;11.566;2023-01-16T00:30:50;1.1;;;0.6;;
26824;SDS011;14402;48.178;11.566;2023-01-16T00:31:20;1.3;;;0.7;;
26824;SDS011;14402;48.178;11.566;2023-01-16T00:31:50;1.3;;;0.7;;
26824;SDS011;14402;48.178;11.566;2023-01-16T00:32:20;1.3;;;0.7;;
26824;SDS011;14402;48.178;11.566;2023-01-16T00:32:50;1.5;;;0.7;;
26824;SDS011;14402;48.178;11.566;2023-01-16T00:33:20;1.7;;;0.7;;
26824;SDS011;14402;48.178;11.566;2023-01-16T00:33:51;1.7;;;0.7;;
26824;SDS011;14402;48.178;11.566;2023-01-16T00:34:21;1.7;;;0.7;;
26824;SDS011;14402;48.178;11.566;2023-01-16T00:34:51;1.6;;;0.6;;
26824;SDS011;14402;48.178;11.566;2023-01-16T00:35:21;1.5;;;0.6;;
26824;SDS011;14402;48.178;11.566;2023-01-16T00:35:51;1.5;;;0.6;;
26824;SDS011;14402;48.178;11.566;2023-01-16T00:36:21;1.5;;;0.6;;
26824;SDS011;14402;48.178;11.566;2023-01-16T00:36:51;1.4;;;0.6;;
26824;SDS011;14402;48.178;11.566;2023-01-16T00:37:21;1.3;;;0.6;;
26824;SDS011;14402;48.178;11.566;2023-01-16T00:37:51;1.3;;;0.6;;
26824;SDS011;14402;48.178;11.566;2023-01-16T00:38:21;1.3;;;0.6;;
26824;SDS011;14402;48.178;11.566;2023-01-16T00:38:51;1.2;;;0.6;;
26824;SDS011;14402;48.178;11.566;2023-01-16T00:39:21;1.2;;;0.7;;
26824;SDS011;14402;48.178;11.566;2023-01-16T00:39:52;1.2;;;0.7;;
26824;SDS011;14402;48.178;11.566;2023-01-16T00:40:22;1.2;;;0.7;;
26824;SDS011;14402;48.178;11.566;2023-01-16T00:40:52;1.2;;;0.8;;
26824;SDS011;14402;48.178;11.566;2023-01-16T00:41:22;1.3;;;0.8;;
26824;SDS011;14402;48.178;11.566;2023-01-16T00:41:52;1.3;;;0.8;;
26824;SDS011;14402;48.178;11.566;2023-01-16T00:42:22;1.3;;;0.8;;
26824;SDS011;14402;48.178;11.566;2023-01-16T00:42:52;1.1;;;0.7;;
26824;SDS011;14402;48.178;11.566;2023-01-16T00:43:22;0.9;;;0.6;;
26824;SDS011;14402;48.178;11.566;2023-01-16T00:43:52;0.9;;;0.6;;
26824;SDS011;14402;48.178;11.566;2023-01-16T00:44:22;0.9;;;0.6;;
26824;SDS011;14402;48.178;11.566;2023-01-16T00:44:52;1.0;;;0.6;;
26824;SDS011;14402;48.178;11.566;2023-01-16T00:45:23;1.2;;;0.6;;
26824;SDS011;14402;48.178;11.566;2023-01-16T00:45:53;1.2;;;0.6;;
26824;SDS011;14402;48.178;11.566;2023-01-16T00:46:23;1.2;;;0.6;;
26824;SDS011;14402;48.178;11.566;2023-01-16T00:46:53;1.1;;;0.6;;
26824;SDS011;14402;48.178;11.566;2023-01-16T00:47:23;1.0;;;0.6;;
26824;SDS011;14402;48.178;11.566;2023-01-16T00:47:53;1.0;;;0.6;;
26824;SDS011;14402;48.178;11.566;2023-01-16T00:48:23;1.0;;;0.6;;
26824;SDS011;14402;48.178;11.566;2023-01-16T00:48:53;1.5;;;0.6;;
26824;SDS011;14402;48.178;11.566;2023-01-16T00:49:23;1.9;;;0.5;;
26824;SDS011;14402;48.178;11.566;2023-01-16T00:49:53;1.9;;;0.5;;
26824;SDS011;14402;48.178;11.566;2023-01-16T00:50:23;1.9;;;0.5;;
26824;SDS011;14402;48.178;11.566;2023-01-16T00:50:53;1.6;;;0.6;;
26824;SDS011;14402;48.178;11.566;2023-01-16T00:51:24;1.4;;;0.7;;
26824;SDS011;14402;48.178;11.566;2023-01-16T00:51:54;1.4;;;0.7;;
26824;SDS011;14402;48.178;11.566;2023-01-16T00:52:24;1.4;;;0.7;;
26824;SDS011;14402;48.178;11.566;2023-01-16T00:52:54;1.3;;;0.6;;
26824;SDS011;14402;48.178;11.566;2023-01-16T00:53:24;1.2;;;0.6;;
26824;SDS011;14402;48.178;11.566;2023-01-16T00:53:54;1.2;;;0.6;;
26824;SDS011;14402;48.178;11.566;2023-01-16T00:54:24;1.2;;;0.6;;
26824;SDS011;14402;48.178;11.566;2023-01-16T00:54:54;1.5;;;0.6;;
26824;SDS011;14402;48.178;11.566;2023-01-16T00:55:24;1.9;;;0.7;;
26824;SDS011;14402;48.178;11.566;2023-01-16T00:55:54;1.9;;;0.7;;
26824;SDS011;14402;48.178;11.566;2023-01-16T00:56:24;1.9;;;0.7;;
26824;SDS011;14402;48.178;11.566;2023-01-16T00:56:54;1.6;;;0.6;;
26824;SDS011;14402;48.178;11.566;2023-01-16T00:57:25;1.4;;;0.5;;
26824;SDS011;14402;48.178;11.566;2023-01-16T00:57:55;1.4;;;0.5;;
26824;SDS011;14402;48.178;11.566;2023-01-16T00:58:25;1.4;;;0.5;;
26824;SDS011;14402;48.178;11.566;2023-01-16T00:58:55;1.6;;;0.6;;
26824;SDS011;14402;48.178;11.566;2023-01-16T00:59:25;1.9;;;0.8;;
26824;SDS011;14402;48.178;11.566;2023-01-16T00:59:55;1.9;;;0.8;;
26824;SDS011;14402;48.178;11.566;2023-01-16T01:00:25;1.9;;;0.8;;
26824;SDS011;14402;48.178;11.566;2023-01-16T01:00:55;1.6;;;0.8;;
26824;SDS011;14402;48.178;11.566;2023-01-16T01:01:25;1.3;;;0.7;;
26824;SDS011;14402;48.178;11.566;2023-01-16T01:01:55;1.3;;;0.7;;
26824;SDS011;14402;48.178;11.566;2023-01-16T01:02:26;1.3;;;0.7;;
26824;SDS011;14402;48.178;11.566;2023-01-16T01:02:55;1.6;;;0.7;;
26824;SDS011;14402;48.178;11.566;2023-01-16T01:03:26;1.9;;;0.7;;
26824;SDS011;14402;48.178;11.566;2023-01-16T01:03:57;1.9;;;0.7;;
26824;SDS011;14402;48.178;11.566;2023-01-16T01:04:27;1.9;;;0.7;;
26824;SDS011;14402;48.178;11.566;2023-01-16T01:04:56;1.4;;;0.6;;
26824;SDS011;14402;48.178;11.566;2023-01-16T01:05:26;0.8;;;0.5;;
26824;SDS011;14402;48.178;11.566;2023-01-16T01:05:56;0.8;;;0.5;;
26824;SDS011;14402;48.178;11.566;2023-01-16T01:06:26;0.8;;;0.5;;
26824;SDS011;14402;48.178;11.566;2023-01-16T01:06:56;0.8;;;0.5;;
26824;SDS011;14402;48.178;11.566;2023-01-16T01:07:26;0.8;;;0.5;;
26824;SDS011;14402;48.178;11.566;2023-01-16T01:07:56;0.8;;;0.5;;
26824;SDS011;14402;48.178;11.566;2023-01-16T01:08:26;1.4;;;0.6;;
26824;SDS011;14402;48.178;11.566;2023-01-16T01:08:56;2.0;;;0.6;;
26824;SDS011;14402;48.178;11.566;2023-01-16T01:09:27;2.0;;;0.6;;
26824;SDS011;14402;48.178;11.566;2023-01-16T01:09:57;2.0;;;0.6;;
26824;SDS011;14402;48.178;11.566;2023-01-16T01:10:27;1.5;;;0.6;;
26824;SDS011;14402;48.178;11.566;2023-01-16T01:10:57;0.9;;;0.5;;
26824;SDS011;14402;48.178;11.566;2023-01-16T01:11:27;0.9;;;0.5;;
26824;SDS011;14402;48.178;11.566;2023-01-16T01:11:57;0.9;;;0.5;;
26824;SDS011;14402;48.178;11.566;2023-01-16T01:12:27;1.2;;;0.6;;
26824;SDS011;14402;48.178;11.566;2023-01-16T01:12:57;1.6;;;0.7;;
26824;SDS011;14402;48.178;11.566;2023-01-16T01:13:27;1.6;;;0.7;;
26824;SDS011;14402;48.178;11.566;2023-01-16T01:13:57;1.6;;;0.7;;
26824;SDS011;14402;48.178;11.566;2023-01-16T01:14:27;1.5;;;0.7;;
26824;SDS011;14402;48.178;11.566;2023-01-16T01:14:58;1.5;;;0.7;;
26824;SDS011;14402;48.178;11.566;2023-01-16T01:15:28;1.5;;;0.7;;
26824;SDS011;14402;48.178;11.566;2023-01-16T01:15:58;1.5;;;0.7;;
26824;SDS011;14402;48.178;11.566;2023-01-16T01:16:28;1.2;;;0.7;;
26824;SDS011;14402;48.178;11.566;2023-01-16T01:16:58;1.0;;;0.7;;
26824;SDS011;14402;48.178;11.566;2023-01-16T01:17:29;1.0;;;0.7;;
26824;SDS011;14402;48.178;11.566;2023-01-16T01:17:58;1.0;;;0.7;;
26824;SDS011;14402;48.178;11.566;2023-01-16T01:18:28;1.4;;;0.7;;
26824;SDS011;14402;48.178;11.566;2023-01-16T01:18:58;1.7;;;0.7;;
26824;SDS011;14402;48.178;11.566;2023-01-16T01:19:29;1.7;;;0.7;;
26824;SDS011;14402;48.178;11.566;2023-01-16T01:19:59;1.7;;;0.7;;
26824;SDS011;14402;48.178;11.566;2023-01-16T01:20:28;1.5;;;0.6;;
26824;SDS011;14402;48.178;11.566;2023-01-16T01:20:59;1.4;;;0.6;;
26824;SDS011;14402;48.178;11.566;2023-01-16T01:21:29;1.4;;;0.6;;
26824;SDS011;14402;48.178;11.566;2023-01-16T01:21:59;1.4;;;0.6;;
26824;SDS011;14402;48.178;11.566;2023-01-16T01:22:29;1.2;;;0.6;;
26824;SDS011;14402;48.178;11.566;2023-01-16T01:22:59;1.1;;;0.6;;
26824;SDS011;14402;48.178;11.566;2023-01-16T01:23:29;1.1;;;0.6;;
26824;SDS011;14402;48.178;11.566;2023-01-16T01:23:59;1.1;;;0.6;;
26824;SDS011;14402;48.178;11.566;2023-01-16T01:24:29;1.3;;;0.7;;
26824;SDS011;14402;48.178;11.566;2023-01-16T01:24:59;1.5;;;0.8;;
26824;SDS011;14402;48.178;11.566;2023-01-16T01:25:29;1.5;;;0.8;;
26824;SDS011;14402;48.178;11.566;2023-01-16T01:26:04;1.5;;;0.8;;
26824;SDS011;14402;48.178;11.566;2023-01-16T01:26:30;1.4;;;0.8;;
26824;SDS011;14402;48.178;11.566;2023-01-16T01:27:00;1.3;;;0.8;;
26824;SDS011;14402;48.178;11.566;2023-01-16T01:27:30;1.3;;;0.8;;
26824;SDS011;14402;48.178;11.566;2023-01-16T01:28:00;1.3;;;0.8;;
26824;SDS011;14402;48.178;11.566;2023-01-16T01:28:30;1.2;;;0.7;;
26824;SDS011;14402;48.178;11.566;2023-01-16T01:29:00;1.2;;;0.6;;
26824;SDS011;14402;48.178;11.566;2023-01-16T01:29:30;1.2;;;0.6;;
26824;SDS011;14402;48.178;11.566;2023-01-16T01:30:00;1.2;;;0.6;;
26824;SDS011;14402;48.178;11.566;2023-01-16T01:30:30;1.3;;;0.6;;
26824;SDS011;14402;48.178;11.566;2023-01-16T01:31:02;1.4;;;0.6;;
26824;SDS011;14402;48.178;11.566;2023-01-16T01:31:30;1.4;;;0.6;;
26824;SDS011;14402;48.178;11.566;2023-01-16T01:32:00;1.4;;;0.6;;
26824;SDS011;14402;48.178;11.566;2023-01-16T01:32:30;1.5;;;0.6;;
26824;SDS011;14402;48.178;11.566;2023-01-16T01:33:01;1.7;;;0.6;;
26824;SDS011;14402;48.178;11.566;2023-01-16T01:33:31;1.7;;;0.6;;
26824;SDS011;14402;48.178;11.566;2023-01-16T01:34:01;1.7;;;0.6;;
26824;SDS011;14402;48.178;11.566;2023-01-16T01:34:31;1.5;;;0.6;;
26824;SDS011;14402;48.178;11.566;2023-01-16T01:35:01;1.3;;;0.6;;
26824;SDS011;14402;48.178;11.566;2023-01-16T01:35:31;1.3;;;0.6;;
26824;SDS011;14402;48.178;11.566;2023-01-16T01:36:01;1.3;;;0.6;;
26824;SDS011;14402;48.178;11.566;2023-01-16T01:36:31;1.2;;;0.7;;
26824;SDS011;14402;48.178;11.566;2023-01-16T01:37:01;1.2;;;0.8;;
26824;SDS011;14402;48.178;11.566;2023-01-16T01:37:31;1.2;;;0.8;;
26824;SDS011;14402;48.178;11.566;2023-01-16T01:38:02;1.2;;;0.8;;
26824;SDS011;14402;48.178;11.566;2023-01-16T01:38:32;1.2;;;0.7;;
26824;SDS011;14402;48.178;11.566;2023-01-16T01:39:02;1.1;;;0.6;;
26824;SDS011;14402;48.178;11.566;2023-01-16T01:39:32;1.1;;;0.6;;
26824;SDS011;14402;48.178;11.566;2023-01-16T01:40:02;1.1;;;0.6;;
26824;SDS011;14402;48.178;11.566;2023-01-16T01:40:32;1.0;;;0.6;;
26824;SDS011;14402;48.178;11.566;2023-01-16T01:41:02;1.0;;;0.5;;
26824;SDS011;14402;48.178;11.566;2023-01-16T01:41:32;1.0;;;0.5;;
26824;SDS011;14402;48.178;11.566;2023-01-16T01:42:02;1.0;;;0.5;;
26824;SDS011;14402;48.178;11.566;2023-01-16T01:42:51;1.0;;;0.6;;
26824;SDS011;14402;48.178;11.566;2023-01-16T01:43:02;1.1;;;0.6;;
26824;SDS011;14402;48.178;11.566;2023-01-16T01:43:41;1.1;;;0.6;;
26824;SDS011;14402;48.178;11.566;2023-01-16T01:44:39;1.1;;;0.6;;
26824;SDS011;14402;48.178;11.566;2023-01-16T01:44:44;1.2;;;0.6;;
26824;SDS011;14402;48.178;11.566;2023-01-16T01:45:05;1.2;;;0.5;;
26824;SDS011;14402;48.178;11.566;2023-01-16T01:45:33;1.2;;;0.5;;
26824;SDS011;14402;48.178;11.566;2023-01-16T01:46:03;1.2;;;0.5;;
26824;SDS011;14402;48.178;11.566;2023-01-16T01:46:36;1.2;;;0.6;;
26824;SDS011;14402;48.178;11.566;2023-01-16T01:47:03;1.2;;;0.6;;
26824;SDS011;14402;48.178;11.566;2023-01-16T01:47:34;1.2;;;0.6;;
26824;SDS011;14402;48.178;11.566;2023-01-16T01:48:04;1.2;;;0.6;;
26824;SDS011;14402;48.178;11.566;2023-01-16T01:48:35;1.6;;;0.7;;
26824;SDS011;14402;48.178;11.566;2023-01-16T01:49:04;2.0;;;0.8;;
26824;SDS011;14402;48.178;11.566;2023-01-16T01:49:33;2.0;;;0.8;;
26824;SDS011;14402;48.178;11.566;2023-01-16T01:50:04;2.0;;;0.8;;
26824;SDS011;14402;48.178;11.566;2023-01-16T01:50:35;1.4;;;0.7;;
26824;SDS011;14402;48.178;11.566;2023-01-16T01:51:04;0.8;;;0.6;;
26824;SDS011;14402;48.178;11.566;2023-01-16T01:51:34;0.8;;;0.6;;
26824;SDS011;14402;48.178;11.566;2023-01-16T01:52:04;0.8;;;0.6;;
26824;SDS011;14402;48.178;11.566;2023-01-16T01:52:34;1.4;;;0.6;;
26824;SDS011;14402;48.178;11.566;2023-01-16T01:53:06;2.1;;;0.6;;
26824;SDS011;14402;48.178;11.566;2023-01-16T01:53:34;2.1;;;0.6;;
26824;SDS011;14402;48.178;11.566;2023-01-16T01:54:04;2.1;;;0.6;;
26824;SDS011;14402;48.178;11.566;2023-01-16T01:54:35;1.8;;;0.6;;
26824;SDS011;14402;48.178;11.566;2023-01-16T01:55:05;1.5;;;0.7;;
26824;SDS011;14402;48.178;11.566;2023-01-16T01:55:34;1.5;;;0.7;;
26824;SDS011;14402;48.178;11.566;2023-01-16T01:56:05;1.5;;;0.7;;
26824;SDS011;14402;48.178;11.566;2023-01-16T01:56:35;1.2;;;0.6;;
26824;SDS011;14402;48.178;11.566;2023-01-16T01:57:05;0.9;;;0.6;;
26824;SDS011;14402;48.178;11.566;2023-01-16T01:57:35;0.9;;;0.6;;
26824;SDS011;14402;48.178;11.566;2023-01-16T01:58:05;0.9;;;0.6;;
26824;SDS011;14402;48.178;11.566;2023-01-16T01:58:35;1.1;;;0.6;;
26824;SDS011;14402;48.178;11.566;2023-01-16T01:59:06;1.3;;;0.6;;
26824;SDS011;14402;48.178;11.566;2023-01-16T01:59:37;1.3;;;0.6;;
26824;SDS011;14402;48.178;11.566;2023-01-16T02:00:07;1.3;;;0.6;;
26824;SDS011;14402;48.178;11.566;2023-01-16T02:00:35;1.4;;;0.6;;
26824;SDS011;14402;48.178;11.566;2023-01-16T02:01:05;1.5;;;0.6;;
26824;SDS011;14402;48.178;11.566;2023-01-16T02:01:35;1.5;;;0.6;;
26824;SDS011;14402;48.178;11.566;2023-01-16T02:02:05;1.5;;;0.6;;
26824;SDS011;14402;48.178;11.566;2023-01-16T02:02:36;1.8;;;0.6;;
26824;SDS011;14402;48.178;11.566;2023-01-16T02:03:06;2.0;;;0.7;;
26824;SDS011;14402;48.178;11.566;2023-01-16T02:03:37;2.0;;;0.7;;
26824;SDS011;14402;48.178;11.566;2023-01-16T02:04:06;2.0;;;0.7;;
26824;SDS011;14402;48.178;11.566;2023-01-16T02:04:36;1.5;;;0.6;;
26824;SDS011;14402;48.178;11.566;2023-01-16T02:05:06;1.0;;;0.6;;
26824;SDS011;14402;48.178;11.566;2023-01-16T02:05:36;1.0;;;0.6;;
26824;SDS011;14402;48.178;11.566;2023-01-16T02:06:07;1.0;;;0.6;;
26824;SDS011;14402;48.178;11.566;2023-01-16T02:06:37;1.0;;;0.6;;
26824;SDS011;14402;48.178;11.566;2023-01-16T02:07:07;1.0;;;0.5;;
26824;SDS011;14402;48.178;11.566;2023-01-16T02:07:36;1.0;;;0.5;;
26824;SDS011;14402;48.178;11.566;2023-01-16T02:08:06;1.0;;;0.5;;
26824;SDS011;14402;48.178;11.566;2023-01-16T02:08:36;1.4;;;0.5;;
26824;SDS011;14402;48.178;11.566;2023-01-16T02:09:06;1.8;;;0.5;;
26824;SDS011;14402;48.178;11.566;2023-01-16T02:09:37;1.8;;;0.5;;
26824;SDS011;14402;48.178;11.566;2023-01-16T02:10:14;1.8;;;0.5;;
26824;SDS011;14402;48.178;11.566;2023-01-16T02:10:38;1.6;;;0.6;;
26824;SDS011;14402;48.178;11.566;2023-01-16T02:11:08;1.4;;;0.6;;
26824;SDS011;14402;48.178;11.566;2023-01-16T02:11:38;1.4;;;0.6;;
26824;SDS011;14402;48.178;11.566;2023-01-16T02:12:08;1.4;;;0.6;;
26824;SDS011;14402;48.178;11.566;2023-01-16T02:12:37;1.9;;;0.6;;
26824;SDS011;14402;48.178;11.566;2023-01-16T02:13:07;2.4;;;0.6;;
26824;SDS011;14402;48.178;11.566;2023-01-16T02:13:37;2.4;;;0.6;;
26824;SDS011;14402;48.178;11.566;2023-01-16T02:14:08;2.4;;;0.6;;
26824;SDS011;14402;48.178;11.566;2023-01-16T02:14:38;1.8;;;0.6;;
26824;SDS011;14402;48.178;11.566;2023-01-16T02:15:08;1.2;;;0.6;;
26824;SDS011;14402;48.178;11.566;2023-01-16T02:15:38;1.2;;;0.6;;
26824;SDS011;14402;48.178;11.566;2023-01-16T02:17:10;1.2;;;0.6;;
26824;SDS011;14402;48.178;11.566;2023-01-16T02:20:42;1.2;;;0.6;;
26824;SDS011;14402;48.178;11.566;2023-01-16T02:21:11;1.2;;;0.6;;
26824;SDS011;14402;48.178;11.566;2023-01-16T02:21:52;1.2;;;0.6;;
26824;SDS011;14402;48.178;11.566;2023-01-16T02:22:17;1.2;;;0.6;;
26824;SDS011;14402;48.178;11.566;2023-01-16T02:22:45;1.0;;;0.6;;
26824;SDS011;14402;48.178;11.566;2023-01-16T02:23:16;0.9;;;0.5;;
26824;SDS011;14402;48.178;11.566;2023-01-16T02:23:59;0.9;;;0.5;;
26824;SDS011;14402;48.178;11.566;2023-01-16T02:24:22;0.9;;;0.5;;
26824;SDS011;14402;48.178;11.566;2023-01-16T02:24:46;1.0;;;0.4;;
26824;SDS011;14402;48.178;11.566;2023-01-16T02:25:16;1.2;;;0.4;;
26824;SDS011;14402;48.178;11.566;2023-01-16T02:25:45;1.2;;;0.4;;
26824;SDS011;14402;48.178;11.566;2023-01-16T02:26:43;1.2;;;0.4;;
26824;SDS011;14402;48.178;11.566;2023-01-16T02:26:48;1.0;;;0.4;;
26824;SDS011;14402;48.178;11.566;2023-01-16T02:27:14;0.8;;;0.4;;
26824;SDS011;14402;48.178;11.566;2023-01-16T02:27:45;0.8;;;0.4;;
26824;SDS011;14402;48.178;11.566;2023-01-16T02:28:14;0.8;;;0.4;;
26824;SDS011;14402;48.178;11.566;2023-01-16T02:28:46;1.0;;;0.4;;
26824;SDS011;14402;48.178;11.566;2023-01-16T02:29:14;1.2;;;0.5;;
26824;SDS011;14402;48.178;11.566;2023-01-16T02:29:47;1.2;;;0.5;;
26824;SDS011;14402;48.178;11.566;2023-01-16T02:30:14;1.2;;;0.5;;
26824;SDS011;14402;48.178;11.566;2023-01-16T02:31:03;1.7;;;0.6;;
26824;SDS011;14402;48.178;11.566;2023-01-16T02:31:10;2.2;;;0.7;;
26824;SDS011;14402;48.178;11.566;2023-01-16T02:31:41;2.2;;;0.7;;
26824;SDS011;14402;48.178;11.566;2023-01-16T02:32:14;2.2;;;0.7;;
26824;SDS011;14402;48.178;11.566;2023-01-16T02:32:45;1.4;;;0.6;;
26824;SDS011;14402;48.178;11.566;2023-01-16T02:33:11;0.6;;;0.4;;
26824;SDS011;14402;48.178;11.566;2023-01-16T02:33:45;0.6;;;0.4;;
26824;SDS011;14402;48.178;11.566;2023-01-16T02:34:16;0.6;;;0.4;;
26824;SDS011;14402;48.178;11.566;2023-01-16T02:34:45;1.2;;;0.4;;
26824;SDS011;14402;48.178;11.566;2023-01-16T02:35:15;1.7;;;0.5;;
26824;SDS011;14402;48.178;11.566;2023-01-16T02:35:48;1.7;;;0.5;;
26824;SDS011;14402;48.178;11.566;2023-01-16T02:36:12;1.7;;;0.5;;
26824;SDS011;14402;48.178;11.566;2023-01-16T02:36:43;1.2;;;0.4;;
26824;SDS011;14402;48.178;11.566;2023-01-16T02:37:13;0.8;;;0.4;;
26824;SDS011;14402;48.178;11.566;2023-01-16T02:37:43;0.8;;;0.4;;
26824;SDS011;14402;48.178;11.566;2023-01-16T02:38:13;0.8;;;0.4;;
26824;SDS011;14402;48.178;11.566;2023-01-16T02:38:43;0.9;;;0.4;;
26824;SDS011;14402;48.178;11.566;2023-01-16T02:39:13;1.0;;;0.5;;
26824;SDS011;14402;48.178;11.566;2023-01-16T02:39:43;1.0;;;0.5;;
26824;SDS011;14402;48.178;11.566;2023-01-16T02:40:16;1.0;;;0.5;;
26824;SDS011;14402;48.178;11.566;2023-01-16T02:40:43;1.0;;;0.5;;
26824;SDS011;14402;48.178;11.566;2023-01-16T02:41:14;1.0;;;0.5;;
26824;SDS011;14402;48.178;11.566;2023-01-16T02:41:50;1.0;;;0.5;;
26824;SDS011;14402;48.178;11.566;2023-01-16T02:42:13;1.0;;;0.5;;
26824;SDS011;14402;48.178;11.566;2023-01-16T02:42:43;1.0;;;0.4;;
26824;SDS011;14402;48.178;11.566;2023-01-16T02:43:14;1.0;;;0.4;;
26824;SDS011;14402;48.178;11.566;2023-01-16T02:43:46;1.0;;;0.4;;
26824;SDS011;14402;48.178;11.566;2023-01-16T02:44:14;1.0;;;0.4;;
26824;SDS011;14402;48.178;11.566;2023-01-16T02:44:44;1.2;;;0.4;;
26824;SDS011;14402;48.178;11.566;2023-01-16T02:45:16;1.4;;;0.4;;
26824;SDS011;14402;48.178;11.566;2023-01-16T02:45:43;1.4;;;0.4;;
26824;SDS011;14402;48.178;11.566;2023-01-16T02:46:15;1.4;;;0.4;;
26824;SDS011;14402;48.178;11.566;2023-01-16T02:46:44;1.2;;;0.4;;
26824;SDS011;14402;48.178;11.566;2023-01-16T02:47:14;1.0;;;0.4;;
26824;SDS011;14402;48.178;11.566;2023-01-16T02:47:43;1.0;;;0.4;;
26824;SDS011;14402;48.178;11.566;2023-01-16T02:48:15;1.0;;;0.4;;
26824;SDS011;14402;48.178;11.566;2023-01-16T02:48:46;0.8;;;0.4;;
26824;SDS011;14402;48.178;11.566;2023-01-16T02:49:15;0.6;;;0.5;;
26824;SDS011;14402;48.178;11.566;2023-01-16T02:49:46;0.6;;;0.5;;
26824;SDS011;14402;48.178;11.566;2023-01-16T02:50:16;0.6;;;0.5;;
26824;SDS011;14402;48.178;11.566;2023-01-16T02:50:46;0.8;;;0.4;;
26824;SDS011;14402;48.178;11.566;2023-01-16T02:51:14;0.9;;;0.4;;
26824;SDS011;14402;48.178;11.566;2023-01-16T02:51:44;0.9;;;0.4;;
26824;SDS011;14402;48.178;11.566;2023-01-16T02:52:14;0.9;;;0.4;;
26824;SDS011;14402;48.178;11.566;2023-01-16T02:52:45;1.0;;;0.4;;
26824;SDS011;14402;48.178;11.566;2023-01-16T02:53:14;1.1;;;0.5;;
26824;SDS011;14402;48.178;11.566;2023-01-16T02:53:45;1.1;;;0.5;;
26824;SDS011;14402;48.178;11.566;2023-01-16T02:54:15;1.1;;;0.5;;
26824;SDS011;14402;48.178;11.566;2023-01-16T02:54:45;1.5;;;0.5;;
26824;SDS011;14402;48.178;11.566;2023-01-16T02:55:16;1.9;;;0.5;;
26824;SDS011;14402;48.178;11.566;2023-01-16T02:55:45;1.9;;;0.5;;
26824;SDS011;14402;48.178;11.566;2023-01-16T02:56:14;1.9;;;0.5;;
26824;SDS011;14402;48.178;11.566;2023-01-16T02:56:45;1.6;;;0.4;;
26824;SDS011;14402;48.178;11.566;2023-01-16T02:57:15;1.3;;;0.4;;
26824;SDS011;14402;48.178;11.566;2023-01-16T02:57:45;1.3;;;0.4;;
26824;SDS011;14402;48.178;11.566;2023-01-16T02:58:15;1.3;;;0.4;;
26824;SDS011;14402;48.178;11.566;2023-01-16T02:58:45;0.9;;;0.4;;
26824;SDS011;14402;48.178;11.566;2023-01-16T02:59:15;0.6;;;0.4;;
26824;SDS011;14402;48.178;11.566;2023-01-16T02:59:45;0.6;;;0.4;;
26824;SDS011;14402;48.178;11.566;2023-01-16T03:00:15;0.6;;;0.4;;
26824;SDS011;14402;48.178;11.566;2023-01-16T03:00:48;0.8;;;0.4;;
26824;SDS011;14402;48.178;11.566;2023-01-16T03:01:17;1.0;;;0.4;;
26824;SDS011;14402;48.178;11.566;2023-01-16T03:01:45;1.0;;;0.4;;
26824;SDS011;14402;48.178;11.566;2023-01-16T03:02:15;1.0;;;0.4;;
26824;SDS011;14402;48.178;11.566;2023-01-16T03:02:45;0.8;;;0.4;;
26824;SDS011;14402;48.178;11.566;2023-01-16T03:03:18;0.5;;;0.4;;
26824;SDS011;14402;48.178;11.566;2023-01-16T03:03:47;0.5;;;0.4;;
26824;SDS011;14402;48.178;11.566;2023-01-16T03:04:47;0.5;;;0.4;;
26824;SDS011;14402;48.178;11.566;2023-01-16T03:04:49;0.6;;;0.4;;
26824;SDS011;14402;48.178;11.566;2023-01-16T03:05:16;0.8;;;0.5;;
26824;SDS011;14402;48.178;11.566;2023-01-16T03:05:46;0.8;;;0.5;;
26824;SDS011;14402;48.178;11.566;2023-01-16T03:06:22;0.8;;;0.5;;
26824;SDS011;14402;48.178;11.566;2023-01-16T03:06:47;0.9;;;0.4;;
26824;SDS011;14402;48.178;11.566;2023-01-16T03:10:59;0.9;;;0.4;;
26824;SDS011;14402;48.178;11.566;2023-01-16T03:11:17;1.0;;;0.4;;
26824;SDS011;14402;48.178;11.566;2023-01-16T03:11:47;1.0;;;0.4;;
26824;SDS011;14402;48.178;11.566;2023-01-16T03:12:21;1.0;;;0.4;;
26824;SDS011;14402;48.178;11.566;2023-01-16T03:12:50;0.9;;;0.4;;
26824;SDS011;14402;48.178;11.566;2023-01-16T03:13:18;0.8;;;0.5;;
26824;SDS011;14402;48.178;11.566;2023-01-16T03:13:50;0.8;;;0.5;;
26824;SDS011;14402;48.178;11.566;2023-01-16T03:14:20;0.8;;;0.5;;
26824;SDS011;14402;48.178;11.566;2023-01-16T03:14:48;1.0;;;0.4;;
26824;SDS011;14402;48.178;11.566;2023-01-16T03:15:19;1.2;;;0.4;;
26824;SDS011;14402;48.178;11.566;2023-01-16T03:15:52;1.2;;;0.4;;
26824;SDS011;14402;48.178;11.566;2023-01-16T03:16:21;1.2;;;0.4;;
26824;SDS011;14402;48.178;11.566;2023-01-16T03:16:51;1.1;;;0.4;;
26824;SDS011;14402;48.178;11.566;2023-01-16T03:17:23;1.0;;;0.5;;
26824;SDS011;14402;48.178;11.566;2023-01-16T03:17:51;1.0;;;0.5;;
26824;SDS011;14402;48.178;11.566;2023-01-16T03:18:21;1.0;;;0.5;;
26824;SDS011;14402;48.178;11.566;2023-01-16T03:18:50;0.8;;;0.4;;
26824;SDS011;14402;48.178;11.566;2023-01-16T03:19:21;0.6;;;0.4;;
26824;SDS011;14402;48.178;11.566;2023-01-16T03:19:52;0.6;;;0.4;;
26824;SDS011;14402;48.178;11.566;2023-01-16T03:20:22;0.6;;;0.4;;
26824;SDS011;14402;48.178;11.566;2023-01-16T03:20:49;0.8;;;0.4;;
26824;SDS011;14402;48.178;11.566;2023-01-16T03:21:20;0.9;;;0.4;;
26824;SDS011;14402;48.178;11.566;2023-01-16T03:21:53;0.9;;;0.4;;
26824;SDS011;14402;48.178;11.566;2023-01-16T03:22:20;0.9;;;0.4;;
26824;SDS011;14402;48.178;11.566;2023-01-16T03:22:50;1.0;;;0.4;;
26824;SDS011;14402;48.178;11.566;2023-01-16T03:23:21;1.1;;;0.5;;
26824;SDS011;14402;48.178;11.566;2023-01-16T03:23:50;1.1;;;0.5;;
26824;SDS011;14402;48.178;11.566;2023-01-16T03:24:23;1.1;;;0.5;;
26824;SDS011;14402;48.178;11.566;2023-01-16T03:24:54;1.2;;;0.6;;
26824;SDS011;14402;48.178;11.566;2023-01-16T03:25:21;1.2;;;0.6;;
26824;SDS011;14402;48.178;11.566;2023-01-16T03:25:51;1.2;;;0.6;;
26824;SDS011;14402;48.178;11.566;2023-01-16T03:26:21;1.2;;;0.6;;
26824;SDS011;14402;48.178;11.566;2023-01-16T03:26:51;1.2;;;0.6;;
26824;SDS011;14402;48.178;11.566;2023-01-16T03:27:22;1.2;;;0.7;;
26824;SDS011;14402;48.178;11.566;2023-01-16T03:27:52;1.2;;;0.7;;
26824;SDS011;14402;48.178;11.566;2023-01-16T03:28:20;1.2;;;0.7;;